Tiempo atmosférico en la estación meteorológica de Calanda, Teruel (459 m.)



Fecha
DESCASC
Temp. máxima en grados centígrados (hora)
DESCASC
Temp. mínima en grados centígrados (hora)
DESCASC
Temp. media en grados centígrados
DESCASC
Racha de viento máxima en m/sg (hora)
DESCASC
Velocidad máxima media en intervalos de 10 minutos(hora)
DESCASC
Precipitaciones diarias en mm
DESCASC
Precipitaciones de 00:00 a 06:00 en mm
DESCASC
Precipitaciones de 06:00 a 12:00 en mm
DESCASC
Precipitaciones de 12:00 a 18:00 en mm
DESCASC
Precipitaciones de 18:00 a 24:00 en mm
DESCASC
29-03-2020 18 (17:10) 6.7 (07:30) 12.3 11.39 (14:50) 7.5 (14:50) 0 0 0 0 0
28-03-2020 16 (16:00) 6.5 (07:00) 11.3 6.39 (23:20) 4.44 (23:20) 0 0 0 0 0
27-03-2020 13.2 (16:20) 0.3 (03:50) 6.7 6.39 (15:20) 3.33 (02:30) 0 0 0 0 0
26-03-2020 12.4 (15:40) 2.4 (00:00) 7.4 15.56 (11:10) 9.17 (10:30) 0.4 0 0 0.4 0
25-03-2020 11.3 (14:40) 4.8 (00:00) 8.1 6.67 (00:50) 4.17 (16:00) 0 0 0 0 0
24-03-2020 13.8 (14:10) 8 (00:00) 10.9 8.89 (14:10) 5.56 (14:10) 0.4 0.4 0 0 0
23-03-2020 13.3 (15:40) 7.9 (00:00) 10.6 6.67 (16:40) 3.89 (15:50) 11 0 10.6 0.4 0
22-03-2020 13.5 (16:30) 6.2 (07:20) 9.8 5.83 (13:00) 2.78 (15:30) 0.2 0 0 0 0.2
21-03-2020 16.5 (15:30) 4.5 (00:00) 10.5 10 (01:40) 5.28 (02:10) 0 0 0 0 0
20-03-2020 14.8 (16:00) 5.1 (00:00) 10 9.72 (16:10) 5.83 (16:20) 0 0 0 0 0
19-03-2020 18.3 (17:00) 6.6 (00:00) 12.4 9.17 (23:20) 5.83 (23:20) 0 0 0 0 0
18-03-2020 15.6 (16:10) 6.9 (00:00) 11.3 5 (02:40) 3.89 (02:40) 0 0 0 0 0
17-03-2020 15.4 (14:30) 8.6 (00:00) 12 8.33 (14:40) 4.72 (15:10) 2.8 2 0.8 0 0
16-03-2020 14.9 (11:10) 7.3 (00:00) 11.1 16.11 (00:40) 8.89 (00:30) 15.2 2.6 0.4 4.4 7.8
15-03-2020 22 (15:10) 5.6 (00:00) 13.8 15.83 (21:50) 8.33 (21:30) 0.8 0 0 0 0.8
14-03-2020 18.6 (17:40) 5.8 (00:00) 12.2 6.67 (15:20) 4.17 (13:40) 0 0 0 0 0
13-03-2020 17.2 (15:50) 9.2 (07:10) 13.2 6.94 (21:10) 4.17 (21:20) 0 0 0 0 0
12-03-2020 24.1 (16:40) 12.5 (00:00) 18.3 7.5 (08:20) 4.17 (03:30) 0.6 0 0 0.6 0
11-03-2020 24.4 (16:50) 9.7 (00:00) 17 6.94 (07:40) 5.28 (07:40) 0 0 0 0 0
10-03-2020 23.2 (16:10) 7.3 (00:00) 15.3 10.28 (02:10) 6.39 (00:10) 0 0 0 0 0
09-03-2020 14.5 (15:30) 8.7 (00:00) 11.6 18.61 (16:50) 11.67 (16:00) 0 0 0 0 0
08-03-2020 18.9 (15:10) 5.6 (00:00) 12.2 8.89 (09:10) 5.56 (08:10) 0 0 0 0 0
07-03-2020 14.6 (15:00) 5.1 (00:00) 9.9 19.44 (12:10) 12.5 (12:40) 0 0 0 0 0
06-03-2020 10 (15:50) 4.3 (00:00) 7.2 20.28 (14:40) 13.33 (14:50) 2.8 0 2.6 0.2 0
05-03-2020 19.9 (12:40) 8.6 (00:00) 14.3 18.61 (14:40) 11.94 (15:50) 0 0 0 0 0
04-03-2020 21 (16:00) 7.2 (05:50) 14.1 11.94 (12:00) 7.22 (11:20) 0 0 0 0 0
03-03-2020 19.4 (16:20) 3.5 (00:00) 11.4 22.22 (15:40) 12.78 (15:40) 0.2 0 0 0.2 0
02-03-2020 17.1 (05:20) 5.3 (00:00) 11.2 25.28 (08:00) 14.72 (06:00) 1.6 0 1.4 0.2 0
01-03-2020 17.6 (12:30) 9.9 (00:00) 13.8 14.44 (13:30) 10.28 (11:00) 0 0 0 0 0
29-02-2020 20.2 (12:40) 7.2 (00:00) 13.7 9.72 (21:20) 5.56 (21:40) 0 0 0 0 0

Gráficas

Temp. máximas Temp. mínimas Temp. medias Precipitaciones Rachas de viento máximas Velocidades máximas media en intervalos de 10 minutos

Datos horarios

Fecha y hora oficial Temperatura (ºC) Velocidad del viento (km/h) Dirección del viento Racha (km/h) Dirección de racha Precipitación (mm) Presión (hPa) Tendencia (hPa) Humedad (%)
2020-03-29 23:00:00 9.9 19 Oeste 31 Noroeste 0 962.2 1.6 54
2020-03-29 22:00:00 10.5 17 Oeste 39 Oeste 0 961.8 1.7 54
2020-03-29 21:00:00 11.8 22 Oeste 37 Oeste 0 961.3 1.1 49
2020-03-29 20:00:00 13.8 21 Noroeste 36 Noroeste 0 960.6 0.1 39
2020-03-29 19:00:00 16.3 19 Noroeste 36 Noroeste 0 960.1 -0.8 31
2020-03-29 18:00:00 17.2 21 Noroeste 32 Noroeste 0 960.2 -1.2 24
2020-03-29 17:00:00 17.7 19 Noroeste 38 Noroeste 0 960.5 -1.7 21
2020-03-29 16:00:00 17.4 26 Noroeste 39 Noroeste 0 960.9 -1.9 22
2020-03-29 15:00:00 17.4 24 Noroeste 41 Noroeste 0 961.4 -1.9 23
2020-03-29 14:00:00 16.5 21 Noroeste 31 Noroeste 0 962.2 -1.4 29
2020-03-29 13:00:00 15.5 13 Noroeste 24 Norte 0 962.8 -0.9 32
2020-03-29 12:00:00 14 14 Noroeste 23 Noroeste 0 963.3 -0.5 39
2020-03-29 11:00:00 13.1 9 Noroeste 16 Oeste 0 963.6 0.1 41
2020-03-29 10:00:00 10.3 11 Sudoeste 19 Sudoeste 0 963.7 0.4 53
2020-03-29 09:00:00 7.8 11 Sudoeste 20 Sudoeste 0 963.8 0.5 59
2020-03-29 08:00:00 6.7 14 Sudoeste 21 Sudoeste 0 963.5 0.1 62
2020-03-29 07:00:00 7.6 15 Sudoeste 21 Sudoeste 0 963.3 -0.2 59
2020-03-29 06:00:00 7.5 15 Sudoeste 25 Sudoeste 0 963.3 -0.7 59
2020-03-29 05:00:00 7.3 11 Sudoeste 24 Sudoeste 0 963.4 -0.8 63
2020-03-29 03:00:00 8.8 17 Sudoeste 24 Sudoeste 0 964 -0.3 58
2020-03-29 01:00:00 8 17 Sudoeste 22 Sudoeste 0 964.2 0 65
2020-03-29 00:00:00 8.4 15 Sudoeste 23 Sudoeste 0 964.4 0.2 63
2020-03-28 23:00:00 8.9 15 Sudoeste 20 Sudoeste 0 964.3 0.7 63
2020-03-28 22:00:00 9.3 8 Sudoeste 17 Sudoeste 0 964.2 1.1 63
2020-03-28 21:00:00 8.6 4 Sudoeste 10 Oeste 0 964.2 1.4 68
2020-03-28 20:00:00 10.1 7 Oeste 9 Oeste 0 963.6 1 66
2020-03-28 19:00:00 13.2 3 Noroeste 9 Norte 0 963.1 0.2 50
2020-03-28 18:00:00 14.8 6 Norte 14 Noroeste 0 962.8 -0.4 39
2020-03-28 17:00:00 14.7 6 Nordeste 14 Nordeste 0 962.6 -1.1 37
2020-03-28 16:00:00 16 4 Nordeste 15 Norte 0 962.9 -1.2 33
2020-03-28 15:00:00 15.2 5 Nordeste 16 Noroeste 0 963.2 -1.3 35
2020-03-28 14:00:00 14.5 6 Norte 15 Norte 0 963.7 -0.7 38
2020-03-28 13:00:00 13.2 6 Norte 18 Noroeste 0 964.1 -0.2 41
2020-03-28 12:00:00 12.5 6 Noroeste 15 Nordeste 0 964.5 0.6 42
2020-03-28 11:00:00 11 4 Norte 9 Norte 0 964.4 1.1 57
2020-03-28 10:00:00 9.7 3 Sur 5 Sur 0 964.3 1.3 63
2020-03-28 09:00:00 8 3 Norte 11 Nordeste 0 963.9 1.3 73
2020-03-28 08:00:00 7.7 4 Oeste 13 Sudoeste 0 963.3 0.9 76
2020-03-28 07:00:00 6.5 6 Sur 9 Sudoeste 0 963 0.9 77
2020-03-28 06:00:00 7.1 4 Sudoeste 11 Oeste 0 962.6 0.6 75
2020-03-28 05:00:00 7.3 6 Sudoeste 13 Sudoeste 0 962.4 0 71
2020-03-28 04:00:00 7.2 8 Sudoeste 17 Sudoeste 0 962.1 0.2 71
2020-03-28 03:00:00 7.2 8 Sudoeste 12 Sudoeste 0 962 0.2 74
2020-03-28 02:00:00 6.9 8 Sudoeste 16 Sudoeste 0 962.4 0.8 75
2020-03-28 01:00:00 7.2 7 Sur 15 Sudoeste 0 961.9 0.6 70
2020-03-28 00:00:00 6.6 5 Sudoeste 11 Sudoeste 0 961.8 1 77
2020-03-27 23:00:00 6.9 6 Sudoeste 11 Sudoeste 0 961.6 1.7 75
2020-03-27 22:00:00 6.3 3 Sudoeste 5 Sudoeste 0 961.3 1.9 82
2020-03-27 21:00:00 7.6 4 Oeste 7 Oeste 0 960.8 2 71
2020-03-27 20:00:00 8.8 5 Norte 10 Nordeste 0 959.9 1.3 62
2020-03-27 19:00:00 11.2 7 Norte 15 Norte 0 959.4 0.5 48
2020-03-27 18:00:00 12.3 7 Nordeste 18 Nordeste 0 958.8 -0.5 40
2020-03-27 17:00:00 12.4 9 Nordeste 17 Norte 0 958.6 -1.2 39
2020-03-27 16:00:00 12 7 Norte 23 Norte 0 958.9 -1.2 41
2020-03-27 15:00:00 11.5 9 Nordeste 19 Nordeste 0 959.3 -1.3 44
2020-03-27 14:00:00 10.5 6 Noroeste 15 Noroeste 0 959.8 -1.1 48
2020-03-27 13:00:00 9.7 6 Norte 13 Nordeste 0 960.1 -0.9 54
2020-03-27 12:00:00 8.1 4 Noroeste 10 Noroeste 0 960.6 0 63
2020-03-27 11:00:00 7.1 4 Noroeste 9 Noroeste 0 960.9 0.9 64
2020-03-27 10:00:00 4.8 3 Noroeste 9 Norte 0 961 1.7 72
2020-03-27 09:00:00 4.2 4 Oeste 10 Oeste 0 960.6 1.7 70
2020-03-27 08:00:00 3.1 4 Oeste 13 Oeste 0 960 1.3 74
2020-03-27 07:00:00 2 8 Sudoeste 15 Oeste 0 959.3 0.8 77
2020-03-27 06:00:00 1.5 11 Oeste 17 Oeste 0 958.9 0.5 79
2020-03-27 05:00:00 0.9 9 Oeste 15 Oeste 0 958.7 0.3 82
2020-03-27 04:00:00 0.5 3 Sudeste 10 Oeste 0 958.5 0.2 88
2020-03-27 03:00:00 1.4 6 Oeste 15 Sudoeste 0 958.4 0.2 84
2020-03-27 02:00:00 1 3 Sudoeste 9 Sudoeste 0 958.4 0.3 90
2020-03-27 01:00:00 2.7 5 Sudoeste 16 Sudoeste 0 958.3 0.3 85
2020-03-27 00:00:00 3.4 12 Sudoeste 18 Sudoeste 0 958.2 0.5 88
2020-03-26 23:00:00 2.8 10 Oeste 13 Oeste 0 958.1 1.3 91
2020-03-26 22:00:00 2.7 7 Oeste 9 Oeste 0 958 1.9 91
2020-03-26 21:00:00 3.7 3 Sur 10 Oeste 0 957.7 2.4 88
2020-03-26 20:00:00 5 5 Oeste 10 Oeste 0 956.8 2.8 81
2020-03-26 19:00:00 5.9 9 Este 29 Este 0 956.1 2.4 71
2020-03-26 18:00:00 7.7 16 Este 37 Nordeste 0 955.3 1.5 63
2020-03-26 17:00:00 11.6 15 Noroeste 31 Oeste 0 954 0.2 28
2020-03-26 16:00:00 11.3 21 Noroeste 35 Noroeste 0 953.7 -0.4 29
2020-03-26 15:00:00 11.2 25 Noroeste 48 Oeste 0 953.8 -0.5 32
2020-03-26 14:00:00 10.7 26 Noroeste 46 Noroeste 0 953.8 -0.7 43
2020-03-26 13:00:00 9.6 23 Noroeste 46 Noroeste 0.4 954.1 -0.2 47
2020-03-26 12:00:00 9.6 28 Noroeste 56 Noroeste 0 954.3 0 44
2020-03-26 11:00:00 9.7 31 Noroeste 51 Noroeste 0 954.5 -0.1 48
2020-03-26 10:00:00 9.8 26 Noroeste 46 Noroeste 0 954.3 -0.7 57
2020-03-26 09:00:00 7.6 20 Noroeste 36 Noroeste 0 954.3 -1.6 72
2020-03-26 08:00:00 6.1 11 Oeste 18 Oeste 0 954.6 -1.6 75
2020-03-26 07:00:00 4.4 13 Sudoeste 17 Sudoeste 0 955 -1.1 76
2020-03-26 06:00:00 3.4 9 Sudoeste 21 Noroeste 0 955.9 -0.8 81
2020-03-26 05:00:00 5.1 15 Oeste 25 Noroeste 0 956.2 -1.1 80
2020-03-26 04:00:00 5.6 8 Oeste 17 Oeste 0 956.1 -1.9 87
2020-03-26 03:00:00 4.2 5 Sudoeste 16 Sudoeste 0 956.7 -1.8 89
2020-03-26 02:00:00 4.9 5 Sudoeste 13 Sudoeste 0 957.3 -1.4 87
2020-03-26 01:00:00 5.9 5 Sudoeste 7 Sudoeste 0 958 -0.9 89
2020-03-26 00:00:00 5.2 4 Sudoeste 8 Oeste 0 958.5 -0.9 90
2020-03-25 23:00:00 5.3 2 Oeste 5 Oeste 0 958.7 -0.7 91
2020-03-25 22:00:00 5.2 5 Oeste 10 Oeste 0 958.9 -0.7 89
2020-03-25 21:00:00 5.6 2 Noroeste 6 Oeste 0 959.4 -0.5 89
2020-03-25 20:00:00 6.9 0 Calma 10 Norte 0 959.4 -0.7 82
2020-03-25 19:00:00 8.9 5 Nordeste 13 Norte 0 959.6 -1 69
2020-03-25 18:00:00 9.3 9 Norte 16 Norte 0 959.9 -1 70
2020-03-25 17:00:00 9.6 9 Norte 23 Norte 0 960.1 -1.2 67
2020-03-25 16:00:00 10.3 15 Norte 23 Norte 0 960.6 -1.5 68
2020-03-25 15:00:00 10.3 8 Norte 15 Norte 0 960.9 -1.2 61
2020-03-25 14:00:00 10.4 4 Sudeste 22 Norte 0 961.3 -0.8 67
2020-03-25 13:00:00 8.6 13 Norte 19 Norte 0 962.1 -0.1 75
2020-03-25 12:00:00 10 5 Sudeste 21 Sudeste 0 962.1 0.1 68
2020-03-25 11:00:00 8 5 Sudeste 17 Sudeste 0 962.1 0.2 76
2020-03-25 10:00:00 7.2 8 Sudeste 24 Sudeste 0 962.2 0.3 75
2020-03-25 09:00:00 6.9 10 Sudeste 20 Sudeste 0 962 0.1 79
2020-03-25 08:00:00 7 11 Sudeste 21 Sudeste 0 961.9 -0.2 77
2020-03-25 07:00:00 7.4 8 Sudeste 18 Sudeste 0 961.9 -0.4 74
2020-03-25 06:00:00 7.4 11 Sudeste 20 Sudeste 0 961.9 -0.7 74
2020-03-25 05:00:00 7.3 3 Noroeste 7 Norte 0 962.1 -1 88
2020-03-25 04:00:00 7.8 3 Noroeste 12 Sur 0 962.3 -0.7 85
2020-03-25 03:00:00 8.4 4 Sur 10 Sur 0 962.6 -0.9 66
2020-03-25 02:00:00 8.5 4 Sudeste 19 Sudeste 0 963.1 -0.5 68
2020-03-25 01:00:00 8.8 13 Sudeste 24 Sudeste 0 963 -0.4 64
2020-03-25 00:00:00 8.8 7 Sudeste 28 Sudeste 0 963.5 0.1 67
2020-03-24 23:00:00 8.8 10 Sudeste 25 Sur 0 963.6 0.3 65
2020-03-24 22:00:00 8.7 11 Sur 24 Sudeste 0 963.4 0.4 66
2020-03-24 21:00:00 9.2 12 Sur 20 Sur 0 963.4 0.8 65
2020-03-24 20:00:00 9.6 5 Sudeste 14 Sudeste 0 963.3 0.5 64
2020-03-24 19:00:00 10.4 9 Sudeste 15 Sudeste 0 963 -0.3 59
2020-03-24 18:00:00 11.8 9 Sudeste 20 Sudeste 0 962.6 -1 54
2020-03-24 17:00:00 11.9 9 Sudeste 22 Sudeste 0 962.8 -1.1 55
2020-03-24 16:00:00 11.8 10 Sudeste 21 Sudeste 0 963.3 -1.1 57
2020-03-24 15:00:00 11.6 16 Este 32 Este 0 963.6 -1.1 60
2020-03-24 14:00:00 13.2 19 Este 26 Este 0 963.9 -0.8 57
2020-03-24 13:00:00 12.6 13 Sudeste 24 Este 0 964.4 -0.6 60
2020-03-24 12:00:00 12.1 9 Sudeste 24 Sudeste 0 964.7 -0.2 63
2020-03-24 11:00:00 11.2 14 Sudeste 22 Sudeste 0 964.7 -0.1 69
2020-03-24 10:00:00 10.2 10 Este 19 Nordeste 0 965 0.5 84
2020-03-24 09:00:00 9 9 Norte 14 Norte 0 964.9 0.7 93
2020-03-24 08:00:00 8.6 3 Noroeste 12 Norte 0 964.8 0.8 94
2020-03-24 07:00:00 8.3 8 Norte 13 Norte 0 964.5 0.2 94
2020-03-24 06:00:00 8.3 6 Nordeste 14 Nordeste 0 964.2 -0.1 95
2020-03-24 05:00:00 8.8 8 Norte 17 Este 0.2 964 -0.6 95
2020-03-24 04:00:00 9.6 8 Este 17 Nordeste 0.2 964.3 -0.6 93
2020-03-24 03:00:00 9.7 5 Este 18 Este 0 964.3 -0.7 90
2020-03-24 02:00:00 9.9 7 Este 10 Este 0 964.6 -0.3 91
2020-03-24 01:00:00 10.1 6 Nordeste 14 Este 0 964.9 0.2 90
2020-03-24 00:00:00 10.1 6 Sudeste 13 Este 0 965 0.5 88
2020-03-23 23:00:00 10.1 9 Este 14 Este 0 964.9 1 88
2020-03-23 22:00:00 10 8 Este 15 Este 0 964.7 1.2 90
2020-03-23 21:00:00 10.4 4 Este 9 Este 0 964.5 1.4 88
2020-03-23 20:00:00 10.8 6 Este 12 Nordeste 0 963.9 0.9 86
2020-03-23 19:00:00 11.8 4 Nordeste 9 Nordeste 0 963.5 0.6 81
2020-03-23 18:00:00 12 4 Sudoeste 13 Sudeste 0 963.1 0 75
2020-03-23 17:00:00 12 9 Sudeste 24 Sudeste 0 963 -0.6 75
2020-03-23 16:00:00 12.8 13 Este 24 Este 0 962.9 -1 74
2020-03-23 15:00:00 12.4 6 Norte 14 Norte 0 963.1 -0.9 83
2020-03-23 14:00:00 12.2 4 Nordeste 12 Nordeste 0 963.6 -0.5 80
2020-03-23 13:00:00 11.8 5 Este 10 Nordeste 0.4 963.9 0.2 81
2020-03-23 12:00:00 9.5 3 Oeste 6 Sur 4.8 964 0.8 96
2020-03-23 11:00:00 9.5 2 Nordeste 7 Nordeste 1.6 964.1 1.3 96
2020-03-23 10:00:00 9.3 3 Norte 9 Norte 2.4 963.7 1.5 97
2020-03-23 09:00:00 9 2 Oeste 4 Oeste 1.6 963.2 1.3 97
2020-03-23 08:00:00 8.8 0 Calma 4 Sudoeste 0.2 962.8 1.3 97
2020-03-23 07:00:00 8.4 0 Calma 6 Oeste 0 962.2 0.7 97
2020-03-23 06:00:00 8.1 0 Calma 5 Oeste 0 961.9 0.5 97
2020-03-23 05:00:00 8.1 3 Noroeste 8 Oeste 0 961.5 0.2 97
2020-03-23 04:00:00 8.4 3 Oeste 6 Noroeste 0 961.5 0.2 96
2020-03-23 03:00:00 8.5 3 Oeste 12 Nordeste 0 961.4 -0.1 95
2020-03-23 02:00:00 9 5 Oeste 8 Oeste 0 961.3 0 92
2020-03-23 01:00:00 8.8 4 Oeste 6 Oeste 0 961.3 0.4 92
2020-03-23 00:00:00 9 2 Oeste 9 Norte 0 961.5 1.2 92
2020-03-22 23:00:00 9.5 2 Oeste 5 Noroeste 0 961.3 1.8 91
2020-03-22 22:00:00 9.4 3 Sudeste 5 Sudeste 0 960.9 1.8 88
2020-03-22 21:00:00 9.7 4 Nordeste 11 Nordeste 0 960.3 1.6 90
2020-03-22 20:00:00 10.5 3 Sur 10 Este 0.2 959.5 1.1 87
2020-03-22 19:00:00 10.8 5 Este 15 Nordeste 0 959.1 0.6 85
2020-03-22 18:00:00 12 8 Nordeste 18 Nordeste 0 958.7 0.2 74
2020-03-22 17:00:00 12.4 8 Nordeste 19 Nordeste 0 958.4 -0.6 72
2020-03-22 16:00:00 12.3 8 Este 20 Nordeste 0 958.5 -0.8 71
2020-03-22 15:00:00 12.2 8 Este 15 Nordeste 0 958.5 -0.8 70
2020-03-22 14:00:00 11.4 6 Este 20 Este 0 959 -0.1 79
2020-03-22 13:00:00 11.4 9 Este 21 Este 0 959.3 0.6 76
2020-03-22 12:00:00 11.4 6 Este 13 Sudeste 0 959.3 0.9 70
2020-03-22 11:00:00 10.9 6 Este 10 Este 0 959.1 1 75
2020-03-22 10:00:00 10.5 2 Nordeste 8 Norte 0 958.7 1.1 77
2020-03-22 09:00:00 8.1 3 Oeste 7 Noroeste 0 958.4 1.2 91
2020-03-22 08:00:00 6.9 3 Oeste 6 Sudeste 0 958.1 1 91
2020-03-22 07:00:00 6.4 4 Sur 6 Sudoeste 0 957.6 0.5 91
2020-03-22 06:00:00 6.9 2 Norte 7 Oeste 0 957.2 -0.2 89
2020-03-22 05:00:00 7.7 4 Oeste 10 Sudoeste 0 957.1 -0.3 85
2020-03-22 04:00:00 6.5 4 Sudoeste 8 Sudoeste 0 957.1 -0.5 88
2020-03-22 03:00:00 7.2 5 Noroeste 9 Norte 0 957.4 -0.6 89
2020-03-22 02:00:00 8 0 Calma 8 Sudoeste 0 957.4 -0.9 85
2020-03-22 01:00:00 10 4 Sur 13 Sur 0 957.6 -0.6 71
2020-03-22 00:00:00 10.7 8 Sur 20 Sur 0 958 0 70
2020-03-21 23:00:00 10.8 4 Este 18 Sur 0 958.3 0.7 71
2020-03-21 22:00:00 11.2 8 Sudeste 19 Sur 0 958.2 1.3 69
2020-03-21 21:00:00 11.9 11 Sur 27 Sur 0 958 1.3 64
2020-03-21 20:00:00 12.8 9 Sudeste 20 Sudeste 0 957.6 0.9 61
2020-03-21 19:00:00 13.9 8 Nordeste 18 Nordeste 0 956.9 -0.2 55
2020-03-21 18:00:00 14.9 10 Norte 21 Norte 0 956.7 -1 42
2020-03-21 17:00:00 15.9 12 Norte 24 Nordeste 0 956.7 -1.7 41
2020-03-21 16:00:00 16.4 10 Nordeste 22 Nordeste 0 957.1 -2.1 42
2020-03-21 15:00:00 15.8 8 Norte 22 Nordeste 0 957.7 -2 42
2020-03-21 14:00:00 15.1 11 Norte 21 Norte 0 958.4 -1.9 44
2020-03-21 13:00:00 14 10 Norte 20 Nordeste 0 959.2 -1.3 47
2020-03-21 12:00:00 12.9 9 Norte 15 Noroeste 0 959.7 -0.9 53
2020-03-21 11:00:00 12.1 6 Nordeste 10 Nordeste 0 960.3 -0.3 57
2020-03-21 10:00:00 10.9 4 Norte 11 Nordeste 0 960.5 0 57
2020-03-21 09:00:00 9.2 3 Sur 8 Sudoeste 0 960.6 0 74
2020-03-21 08:00:00 5.3 0 Calma 5 Sur 0 960.6 -0.1 90
2020-03-21 07:00:00 4.8 2 Oeste 11 Este 0 960.5 -0.4 88
2020-03-21 06:00:00 4.9 7 Este 14 Este 0 960.6 -0.8 88
2020-03-21 05:00:00 5.8 5 Este 18 Este 0 960.7 -0.8 81
2020-03-21 04:00:00 8.5 8 Sudeste 23 Sudeste 0 960.9 -1 69
2020-03-21 03:00:00 9 12 Sur 35 Sudeste 0 961.4 -1 64
2020-03-21 02:00:00 9.2 12 Sur 36 Sur 0 961.5 -1.1 65
2020-03-21 01:00:00 9.7 15 Sur 30 Sudeste 0 961.9 -0.8 67
2020-03-21 00:00:00 9.7 9 Sudeste 27 Sur 0 962.4 -0.4 72
2020-03-20 23:00:00 9.2 5 Sudoeste 13 Sudeste 0 962.6 0 77
2020-03-20 22:00:00 8.8 5 Sudeste 9 Sudeste 0 962.7 -0.1 79
2020-03-20 21:00:00 9 4 Este 13 Este 0 962.8 0.3 79
2020-03-20 20:00:00 9.7 8 Este 16 Este 0 962.6 0 74
2020-03-20 19:00:00 11.7 12 Este 26 Este 0 962.8 -0.2 61
2020-03-20 18:00:00 13.6 19 Este 29 Este 0 962.5 -0.9 59
2020-03-20 17:00:00 14 16 Sudeste 35 Este 0 962.6 -1 54
2020-03-20 16:00:00 14.6 17 Sudeste 30 Este 0 963 -1.1 53
2020-03-20 15:00:00 14.1 14 Sudeste 27 Sudeste 0 963.4 -1.1 50
2020-03-20 14:00:00 13.2 13 Sudeste 24 Sudeste 0 963.6 -1.1 58
2020-03-20 13:00:00 13.7 10 Sudeste 18 Sudeste 0 964.1 -0.8 56
2020-03-20 12:00:00 13.1 9 Norte 16 Norte 0 964.5 -0.4 60
2020-03-20 11:00:00 12.2 7 Nordeste 18 Sudeste 0 964.7 0 60
2020-03-20 10:00:00 12.1 9 Sudeste 19 Este 0 964.9 0.5 61
2020-03-20 09:00:00 9.6 5 Sudoeste 9 Sudeste 0 964.9 0.8 73
2020-03-20 08:00:00 8.1 5 Este 10 Este 0 964.7 0.5 81
2020-03-20 07:00:00 5.5 0 Calma 6 Este 0 964.4 0 85
2020-03-20 06:00:00 6 4 Sudeste 6 Este 0 964.1 -0.5 83
2020-03-20 05:00:00 6.7 4 Sudeste 11 Sudeste 0 964.2 -0.6 77
2020-03-20 04:00:00 7.1 2 Nordeste 16 Sur 0 964.4 -0.4 70
2020-03-20 03:00:00 8.4 10 Sudeste 21 Sudeste 0 964.6 -0.5 62
2020-03-20 02:00:00 8.5 9 Este 33 Sudeste 0 964.8 -0.7 62
2020-03-20 01:00:00 9.4 10 Sudeste 33 Sudeste 0 964.8 -0.7 56
2020-03-20 00:00:00 9.9 15 Sudeste 33 Sudeste 0 965.1 -0.5 60
2020-03-19 23:00:00 10 14 Sudeste 30 Sudeste 0 965.5 0.1 59
2020-03-19 22:00:00 10.8 14 Sudeste 26 Sudeste 0 965.5 0.6 57
2020-03-19 21:00:00 11.3 12 Sudeste 27 Sudeste 0 965.6 1 55
2020-03-19 20:00:00 12.4 11 Sudeste 26 Sudeste 0 965.4 0.8 51
2020-03-19 19:00:00 13.9 12 Sudeste 27 Sudeste 0 964.9 -0.2 48
2020-03-19 18:00:00 16.5 13 Sudeste 23 Sur 0 964.6 -1.3 40
2020-03-19 17:00:00 18.1 8 Este 25 Nordeste 0 964.6 -2.2 34
2020-03-19 16:00:00 17.6 14 Nordeste 24 Nordeste 0 965.1 -2.5 38
2020-03-19 15:00:00 17.1 12 Norte 22 Norte 0 965.9 -2.4 41
2020-03-19 14:00:00 16 10 Norte 19 Norte 0 966.8 -2.1 49
2020-03-19 13:00:00 14.9 9 Nordeste 20 Norte 0 967.6 -1.3 53
2020-03-19 12:00:00 14.7 7 Norte 14 Norte 0 968.3 -0.4 46
2020-03-19 11:00:00 13.7 3 Norte 9 Sur 0 968.9 0.3 45
2020-03-19 10:00:00 11.2 6 Sur 16 Sur 0 968.9 0.3 56
2020-03-19 09:00:00 8.6 10 Sudoeste 17 Sudoeste 0 968.7 0.1 68
2020-03-19 08:00:00 7.6 11 Sudoeste 14 Sudoeste 0 968.6 -0.1 73
2020-03-19 07:00:00 7.1 7 Sudoeste 15 Sudoeste 0 968.6 -0.3 78
2020-03-19 06:00:00 7.7 9 Sudoeste 13 Sudoeste 0 968.6 -0.8 75
2020-03-19 05:00:00 7 4 Sur 10 Sur 0 968.7 -1.2 80
2020-03-19 04:00:00 8.3 3 Sudoeste 14 Oeste 0 968.9 -1.2 74
2020-03-19 03:00:00 8 9 Oeste 17 Sudoeste 0 969.4 -1.1 81
2020-03-19 02:00:00 9.6 15 Sudoeste 20 Sudoeste 0 969.9 -1 70
2020-03-19 01:00:00 9 6 Oeste 17 Sudoeste 0 970.1 -0.9 76
2020-03-19 00:00:00 8.6 3 Sur 11 Oeste 0 970.5 -0.4 86
2020-03-18 23:00:00 9.8 8 Sudoeste 13 Sudoeste 0 970.9 0.3 91
2020-03-18 22:00:00 9.1 5 Sudoeste 8 Sudoeste 0 971 0.5 95
2020-03-18 21:00:00 9.9 0 Calma 7 Oeste 0 970.9 0.6 93
2020-03-18 20:00:00 11.4 5 Oeste 8 Oeste 0 970.6 0.2 91
2020-03-18 19:00:00 12.9 4 Norte 10 Nordeste 0 970.5 -0.3 83
2020-03-18 18:00:00 14.1 8 Norte 16 Norte 0 970.3 -0.9 75
2020-03-18 17:00:00 14.8 10 Norte 15 Norte 0 970.4 -1.5 72
2020-03-18 16:00:00 15.4 8 Nordeste 17 Norte 0 970.8 -1.8 64
2020-03-18 15:00:00 14.6 8 Norte 18 Norte 0 971.2 -2.2 69
2020-03-18 14:00:00 14.5 8 Norte 15 Norte 0 971.9 -2 69
2020-03-18 13:00:00 13.8 6 Norte 10 Norte 0 972.6 -1.3 68
2020-03-18 12:00:00 13.1 3 Nordeste 8 Noroeste 0 973.4 -0.1 71
2020-03-18 11:00:00 12.1 3 Noroeste 5 Noroeste 0 973.9 0.6 69
2020-03-18 10:00:00 10.8 0 Calma 5 Oeste 0 973.9 0.5 76
2020-03-18 09:00:00 9.4 2 Oeste 9 Sudoeste 0 973.5 0.3 83
2020-03-18 08:00:00 7.7 5 Sudoeste 9 Sudoeste 0 973.3 0.1 90
2020-03-18 07:00:00 6.9 6 Oeste 6 Oeste 0 973.4 0.1 93
2020-03-18 06:00:00 7.8 4 Sudoeste 9 Sudoeste 0 973.2 -0.4 90
2020-03-18 05:00:00 8.2 3 Sudoeste 13 Sudoeste 0 973.2 -0.9 90
2020-03-18 04:00:00 9 9 Sudoeste 14 Sudoeste 0 973.3 -1 86
2020-03-18 03:00:00 9.2 7 Sudoeste 18 Sudoeste 0 973.6 -1 89
2020-03-18 02:00:00 9 8 Sudoeste 11 Sudoeste 0 974.1 -0.7 91
2020-03-18 01:00:00 9 5 Sudoeste 9 Sudoeste 0 974.3 -0.3 93
2020-03-18 00:00:00 9 6 Oeste 10 Oeste 0 974.6 0.3 94
2020-03-17 23:00:00 9.8 3 Oeste 7 Oeste 0 974.8 1 91
2020-03-17 22:00:00 10 3 Norte 6 Noroeste 0 974.6 1.2 92
2020-03-17 21:00:00 11.3 3 Nordeste 6 Norte 0 974.3 1.2 86
2020-03-17 20:00:00 11.7 2 Nordeste 9 Este 0 973.8 1.1 85
2020-03-17 19:00:00 12.6 6 Este 17 Este 0 973.4 0.8 79
2020-03-17 18:00:00 13.3 9 Este 23 Este 0 973.1 0.6 77
2020-03-17 17:00:00 13.7 15 Este 28 Este 0 972.7 0.2 77
2020-03-17 16:00:00 14.5 16 Este 28 Este 0 972.6 -0.1 74
2020-03-17 15:00:00 13.7 16 Este 30 Este 0 972.5 0.1 79
2020-03-17 14:00:00 13.5 13 Este 26 Nordeste 0 972.5 0.5 85
2020-03-17 13:00:00 12.4 11 Nordeste 29 Este 0 972.7 1.6 94
2020-03-17 12:00:00 11.8 8 Nordeste 19 Nordeste 0.4 972.4 2.1 97
2020-03-17 11:00:00 12.2 7 Nordeste 13 Norte 0.2 972 2.5 95
2020-03-17 10:00:00 11.9 7 Norte 14 Norte 0.2 971.1 2.5 96
2020-03-17 09:00:00 11.1 6 Norte 13 Norte 0 970.3 2.4 97
2020-03-17 08:00:00 10.8 6 Norte 16 Norte 0 969.5 2.2 97
2020-03-17 07:00:00 10.7 8 Nordeste 16 Nordeste 0 968.6 1.9 97
2020-03-17 06:00:00 10.7 8 Nordeste 17 Nordeste 0.2 967.9 1.4 97
2020-03-17 05:00:00 10.8 9 Nordeste 19 Nordeste 1 967.3 0.7 98
2020-03-17 04:00:00 10.6 8 Nordeste 17 Norte 0 966.7 0.4 99
2020-03-17 03:00:00 9.7 7 Norte 12 Norte 0.4 966.5 0.2 99
2020-03-17 02:00:00 9.3 4 Sudoeste 8 Oeste 0.2 966.6 0.7 98
2020-03-17 01:00:00 9.1 6 Noroeste 8 Noroeste 0.2 966.3 1.4 98
2020-03-17 00:00:00 8.6 0 Calma 7 Noroeste 0.2 966.3 2.2 97
2020-03-16 23:00:00 8.2 2 Noroeste 8 Noroeste 0.6 965.9 3.1 97
2020-03-16 22:00:00 8 3 Noroeste 9 Noroeste 1.6 964.9 3.1 96
2020-03-16 21:00:00 7.7 4 Sur 8 Oeste 3 964.1 3.4 95
2020-03-16 20:00:00 7.9 3 Noroeste 13 Sudoeste 0.8 962.8 2.4 93
2020-03-16 19:00:00 7.7 8 Oeste 21 Oeste 1.6 961.8 1.6 92
2020-03-16 18:00:00 8 6 Oeste 15 Oeste 0 960.7 1 91
2020-03-16 17:00:00 7.8 8 Noroeste 21 Oeste 1 960.4 1.2 93
2020-03-16 16:00:00 7.5 8 Oeste 22 Noroeste 0.2 960.2 1.2 92
2020-03-16 15:00:00 7.4 14 Noroeste 36 Noroeste 2 959.7 1 93
2020-03-16 14:00:00 10.8 20 Norte 37 Norte 1.2 959.2 0.8 91
2020-03-16 13:00:00 12.5 13 Nordeste 23 Este 0 959 0.7 80
2020-03-16 12:00:00 13.1 14 Este 27 Este 0 958.7 1 72
2020-03-16 11:00:00 14.5 13 Este 24 Sudeste 0 958.4 1.2 66
2020-03-16 10:00:00 11.2 14 Sudeste 26 Sudeste 0 958.3 1.3 72
2020-03-16 09:00:00 10.8 11 Sudeste 22 Sudeste 0.2 957.7 0.7 87
2020-03-16 08:00:00 9.8 5 Nordeste 11 Nordeste 0.2 957.2 0 94
2020-03-16 07:00:00 9.6 3 Norte 13 Este 0 957 -0.7 90
2020-03-16 06:00:00 9.1 6 Este 11 Este 0.2 957 -1.5 89
2020-03-16 05:00:00 9.9 5 Este 27 Sudeste 0.2 957.2 -1.7 81
2020-03-16 04:00:00 9.5 10 Este 21 Este 0.2 957.7 -0.6 88
2020-03-16 03:00:00 10 3 Nordeste 26 Sur 1.2 958.5 0.1 80
2020-03-16 02:00:00 10.7 13 Sur 33 Sudoeste 0.8 958.9 -0.5 79
2020-03-16 01:00:00 12.3 24 Sur 58 Sudeste 0 958.3 -0.4 65
2020-03-16 00:00:00 11.7 24 Sudeste 46 Sudeste 0.6 958.4 0.8 73
2020-03-15 23:00:00 12.4 19 Sur 42 Sur 0.2 959.4 2.1 78
2020-03-15 22:00:00 13.8 24 Sur 57 Sur 0 958.7 2 62
2020-03-15 21:00:00 14.1 26 Sur 51 Sur 0 957.6 0.8 60
2020-03-15 20:00:00 14.5 22 Sur 45 Sur 0 957.3 0.3 58
2020-03-15 19:00:00 15.6 25 Sur 46 Sudeste 0 956.7 -0.7 55
2020-03-15 18:00:00 16.7 30 Sudeste 50 Sur 0 956.8 -1.4 53
2020-03-15 17:00:00 18.7 27 Sur 44 Sudeste 0 957 -2.6 45
2020-03-15 16:00:00 20.3 22 Sudeste 40 Sudeste 0 957.4 -3.7 40
2020-03-15 15:00:00 21.9 14 Sudeste 25 Sudeste 0 958.2 -3.8 35
2020-03-15 14:00:00 19.4 7 Nordeste 17 Nordeste 0 959.6 -3.1 44
2020-03-15 13:00:00 16.4 7 Nordeste 14 Norte 0 961.1 -2 43
2020-03-15 12:00:00 14.9 6 Norte 12 Nordeste 0 962 -1.2 39
2020-03-15 11:00:00 13.3 4 Nordeste 10 Nordeste 0 962.7 -0.2 40
2020-03-15 10:00:00 11.4 4 Nordeste 8 Sudeste 0 963.1 0.1 45
2020-03-15 09:00:00 10.5 3 Este 7 Sur 0 963.2 0.1 52
2020-03-15 08:00:00 8 6 Sudoeste 13 Oeste 0 962.9 -0.5 59
2020-03-15 07:00:00 6.1 8 Sur 13 Sudoeste 0 963 -0.8 59
2020-03-15 06:00:00 7.6 10 Sudoeste 17 Sudoeste 0 963.1 -1.5 54
2020-03-15 05:00:00 8.2 11 Sur 16 Sudoeste 0 963.4 -1.6 49
2020-03-15 04:00:00 7.9 8 Sudoeste 18 Sudoeste 0 963.8 -1.5 48
2020-03-15 03:00:00 8.2 12 Sudoeste 20 Sudoeste 0 964.6 -0.9 46
2020-03-15 02:00:00 8.3 13 Sudoeste 18 Sudoeste 0 965 -0.6 44
2020-03-15 01:00:00 8.8 13 Sudoeste 18 Sudoeste 0 965.3 -0.3 43
2020-03-15 00:00:00 9.1 10 Sudoeste 20 Sudoeste 0 965.5 0.1 42
2020-03-14 23:00:00 10 13 Sudoeste 18 Sudoeste 0 965.6 0.5 39
2020-03-14 22:00:00 8.4 4 Oeste 6 Oeste 0 965.6 0.7 49
2020-03-14 21:00:00 10.2 6 Sudoeste 13 Oeste 0 965.4 0.6 41
2020-03-14 20:00:00 10.4 3 Oeste 8 Oeste 0 965.1 0.4 43
2020-03-14 19:00:00 15.4 0 Calma 9 Norte 0 964.9 -0.2 27
2020-03-14 18:00:00 18.1 7 Norte 13 Noroeste 0 964.8 -0.7 19
2020-03-14 17:00:00 18 10 Norte 20 Noroeste 0 964.7 -1.4 19
2020-03-14 16:00:00 17.7 10 Norte 24 Norte 0 965.1 -1.5 21
2020-03-14 15:00:00 17.6 12 Norte 23 Norte 0 965.5 -1.5 20
2020-03-14 14:00:00 17.1 12 Norte 24 Norte 0 966.1 -1.5 23
2020-03-14 13:00:00 16.6 11 Noroeste 19 Norte 0 966.6 -1 29
2020-03-14 12:00:00 14.5 7 Norte 12 Noroeste 0 967 -0.3 48
2020-03-14 11:00:00 13.8 5 Nordeste 10 Norte 0 967.6 1 58
2020-03-14 10:00:00 11.3 4 Norte 9 Norte 0 967.6 1.1 66
2020-03-14 09:00:00 9.1 6 Norte 14 Sudoeste 0 967.3 1.2 74
2020-03-14 08:00:00 7.4 11 Sudoeste 20 Sudoeste 0 966.6 1 82
2020-03-14 07:00:00 5.9 6 Sur 12 Norte 0 966.5 0.8 87
2020-03-14 06:00:00 6.4 6 Oeste 10 Sudoeste 0 966.1 0 85
2020-03-14 05:00:00 7.2 2 Oeste 7 Oeste 0 965.6 -0.8 83
2020-03-14 04:00:00 8.1 0 Calma 8 Sudoeste 0 965.7 -0.6 80
2020-03-14 03:00:00 8.8 3 Sudoeste 8 Oeste 0 966.1 -0.2 79
2020-03-14 02:00:00 8.3 2 Oeste 5 Oeste 0 966.4 0.2 81
2020-03-14 01:00:00 9.1 0 Calma 7 Oeste 0 966.3 0.5 74
2020-03-14 00:00:00 10.8 5 Oeste 20 Noroeste 0 966.3 1.1 65
2020-03-13 23:00:00 11.8 9 Noroeste 17 Noroeste 0 966.2 1.3 61
2020-03-13 22:00:00 12.9 12 Noroeste 25 Norte 0 965.8 1.3 60
2020-03-13 21:00:00 14.5 5 Noroeste 11 Noroeste 0 965.2 1.2 55
2020-03-13 20:00:00 15 8 Noroeste 19 Noroeste 0 964.9 0.9 53
2020-03-13 19:00:00 15.3 10 Noroeste 19 Norte 0 964.5 0 52
2020-03-13 18:00:00 16.2 5 Norte 10 Norte 0 964 -0.9 51
2020-03-13 17:00:00 16.5 4 Noroeste 14 Noroeste 0 964 -1.4 50
2020-03-13 16:00:00 16.8 7 Noroeste 18 Noroeste 0 964.5 -1.7 48
2020-03-13 15:00:00 16.6 7 Noroeste 18 Norte 0 964.9 -1.6 49
2020-03-13 14:00:00 15.7 9 Norte 24 Norte 0 965.4 -1.6 51
2020-03-13 13:00:00 15.7 7 Noroeste 13 Noroeste 0 966.2 -0.9 54
2020-03-13 12:00:00 14.8 5 Sur 14 Sur 0 966.5 -0.3 57
2020-03-13 11:00:00 13.1 5 Norte 14 Noroeste 0 967 0.8 64
2020-03-13 10:00:00 12.7 6 Noroeste 17 Oeste 0 967.1 1.5 67
2020-03-13 09:00:00 12 9 Oeste 17 Oeste 0 966.8 1.4 71
2020-03-13 08:00:00 11.4 5 Oeste 13 Oeste 0 966.2 0.9 76
2020-03-13 07:00:00 9.3 7 Oeste 12 Sudoeste 0 965.6 0.3 81
2020-03-13 06:00:00 10.2 9 Sudoeste 14 Sudoeste 0 965.4 -0.1 80
2020-03-13 05:00:00 10 8 Oeste 16 Sudoeste 0 965.3 -0.4 81
2020-03-13 04:00:00 11.2 10 Oeste 19 Oeste 0 965.3 -0.6 78
2020-03-13 03:00:00 11.7 11 Sudoeste 19 Sudoeste 0 965.5 -0.5 78
2020-03-13 02:00:00 11.6 8 Oeste 13 Oeste 0 965.7 0.4 81
2020-03-13 01:00:00 11.9 5 Oeste 11 Noroeste 0 965.9 1.1 76
2020-03-13 00:00:00 12.6 3 Noroeste 8 Norte 0 966 2 78
2020-03-12 23:00:00 14.8 5 Norte 15 Noroeste 0 965.3 2 68
2020-03-12 22:00:00 16.8 9 Norte 13 Norte 0 964.8 2.3 60
2020-03-12 21:00:00 18 3 Oeste 16 Noroeste 0 964 1.6 52
2020-03-12 20:00:00 18.3 8 Oeste 13 Oeste 0 963.3 0.9 53
2020-03-12 19:00:00 20.2 7 Oeste 17 Noroeste 0 962.5 -0.5 47
2020-03-12 18:00:00 22.3 4 Norte 17 Noroeste 0 962.4 -1.3 41
2020-03-12 17:00:00 23.6 4 Norte 16 Nordeste 0 962.4 -2.3 34
2020-03-12 16:00:00 23.6 8 Norte 17 Norte 0 963 -2.8 33
2020-03-12 15:00:00 23.3 9 Norte 15 Norte 0 963.7 -2.5 34
2020-03-12 14:00:00 21.9 6 Norte 16 Norte 0 964.7 -1.6 38
2020-03-12 13:00:00 20.8 7 Norte 17 Norte 0.6 965.8 -0.4 42
2020-03-12 12:00:00 19.9 10 Norte 17 Norte 0 966.2 0 45
2020-03-12 11:00:00 21.1 7 Norte 11 Este 0 966.3 0.4 39
2020-03-12 10:00:00 20.2 5 Este 12 Este 0 966.2 0.1 36
2020-03-12 09:00:00 18.5 6 Sur 27 Sudoeste 0 966.2 -0.1 38
2020-03-12 08:00:00 15.5 8 Sur 21 Sudoeste 0 965.9 -0.4 44
2020-03-12 07:00:00 14.3 10 Sur 14 Sudoeste 0 966.1 -0.3 48
2020-03-12 06:00:00 13.2 9 Sudoeste 16 Sudoeste 0 966.3 -0.5 52
2020-03-12 05:00:00 13.8 12 Sudoeste 18 Sudoeste 0 966.3 -0.7 50
2020-03-12 04:00:00 14.2 12 Sudoeste 19 Sudoeste 0 966.4 -0.7 49
2020-03-12 03:00:00 14.7 12 Sudoeste 16 Sudoeste 0 966.8 -0.5 47
2020-03-12 02:00:00 15.6 13 Sudoeste 21 Sudoeste 0 967 -0.6 44
2020-03-12 01:00:00 16.9 6 Sudoeste 21 Sudoeste 0 967.1 -0.4 39
2020-03-12 00:00:00 16.6 16 Sudoeste 21 Sudoeste 0 967.3 -0.2 41
2020-03-11 23:00:00 17.5 8 Sudoeste 18 Sudoeste 0 967.6 0.1 40
2020-03-11 22:00:00 17 8 Oeste 17 Sudoeste 0 967.5 0.2 44
2020-03-11 21:00:00 17 10 Sudoeste 15 Sudoeste 0 967.5 0.5 46
2020-03-11 20:00:00 15.9 3 Sudoeste 10 Oeste 0 967.5 0.4 50
2020-03-11 19:00:00 19.1 4 Oeste 5 Oeste 0 967.3 -0.1 43
2020-03-11 18:00:00 23.2 4 Nordeste 10 Norte 0 967 -0.9 27
2020-03-11 17:00:00 24.2 4 Nordeste 14 Nordeste 0 967.1 -1.4 25
2020-03-11 16:00:00 23.6 6 Nordeste 19 Nordeste 0 967.4 -1.9 28
2020-03-11 15:00:00 23.5 6 Nordeste 16 Noroeste 0 967.9 -2.1 28
2020-03-11 14:00:00 22.7 8 Nordeste 17 Norte 0 968.5 -1.7 29
2020-03-11 13:00:00 21.9 9 Nordeste 18 Nordeste 0 969.3 -1 30
2020-03-11 12:00:00 21.2 8 Sudeste 14 Sudeste 0 970 -0.1 36
2020-03-11 11:00:00 19.4 7 Este 11 Este 0 970.2 0.4 40
2020-03-11 10:00:00 17.3 5 Sur 14 Sudoeste 0 970.3 0.8 43
2020-03-11 09:00:00 12.9 12 Sudoeste 17 Sudoeste 0 970.1 0.6 55
2020-03-11 08:00:00 10.4 15 Sudoeste 25 Sudoeste 0 969.8 0.4 60
2020-03-11 07:00:00 10.5 15 Sudoeste 21 Sudoeste 0 969.5 -0.1 59
2020-03-11 06:00:00 11.9 18 Sudoeste 24 Sudoeste 0 969.5 -0.4 56
2020-03-11 05:00:00 10.9 14 Sudoeste 21 Sudoeste 0 969.4 -0.6 61
2020-03-11 04:00:00 10.9 12 Sudoeste 18 Sudoeste 0 969.6 -0.5 60
2020-03-11 03:00:00 12.5 10 Sudoeste 18 Sudoeste 0 969.9 -0.3 53
2020-03-11 02:00:00 12.6 9 Sudoeste 16 Sudoeste 0 970 -0.2 53
2020-03-11 01:00:00 14.7 11 Sudoeste 18 Sudoeste 0 970.1 0 45
2020-03-11 00:00:00 14.2 15 Sudoeste 20 Sudoeste 0 970.2 0.5 49
2020-03-10 23:00:00 15.4 13 Sudoeste 18 Sudoeste 0 970.2 0.8 44
2020-03-10 22:00:00 14.9 9 Oeste 16 Oeste 0 970.1 1.3 45
2020-03-10 21:00:00 15.6 11 Oeste 17 Sudoeste 0 969.7 1 43
2020-03-10 20:00:00 14.2 8 Oeste 12 Oeste 0 969.4 0.9 48
2020-03-10 19:00:00 17.7 0 Calma 10 Norte 0 968.8 0.2 39
2020-03-10 18:00:00 21.2 10 Norte 23 Noroeste 0 968.7 -0.5 27
2020-03-10 17:00:00 22.8 13 Noroeste 27 Noroeste 0 968.5 -1 22
2020-03-10 16:00:00 22.9 18 Noroeste 29 Noroeste 0 968.6 -1.8 18
2020-03-10 15:00:00 22.3 15 Noroeste 32 Noroeste 0 969.2 -1.6 13
2020-03-10 14:00:00 21.3 21 Noroeste 33 Noroeste 0 969.5 -1.6 14
2020-03-10 13:00:00 20.2 21 Noroeste 36 Noroeste 0 970.4 -0.6 17
2020-03-10 12:00:00 18.8 16 Noroeste 31 Noroeste 0 970.8 0.1 19
2020-03-10 11:00:00 17.4 16 Oeste 30 Oeste 0 971.1 0.8 23
2020-03-10 10:00:00 15.2 13 Oeste 23 Sudoeste 0 971 1 29
2020-03-10 09:00:00 12.2 13 Sudoeste 24 Sudoeste 0 970.7 0.9 34
2020-03-10 08:00:00 9.8 14 Sudoeste 18 Sudoeste 0 970.3 0.4 39
2020-03-10 07:00:00 9.1 12 Sudoeste 19 Sudoeste 0 970 0 40
2020-03-10 06:00:00 9.2 11 Sudoeste 19 Sudoeste 0 969.8 -0.6 43
2020-03-10 05:00:00 8.1 11 Sudoeste 15 Sudoeste 0 969.9 -0.7 50
2020-03-10 04:00:00 8 13 Sudoeste 19 Sudoeste 0 970 -0.4 56
2020-03-10 03:00:00 8 10 Oeste 37 Oeste 0 970.4 -0.2 58
2020-03-10 02:00:00 8.4 14 Oeste 24 Oeste 0 970.6 -0.1 55
2020-03-10 01:00:00 7.9 11 Oeste 35 Oeste 0 970.4 -0.2 59
2020-03-10 00:00:00 9.2 23 Noroeste 49 Oeste 0 970.6 0.9 53
2020-03-09 23:00:00 8.9 24 Noroeste 42 Noroeste 0 970.7 1.5 56
2020-03-09 22:00:00 9.1 23 Noroeste 45 Noroeste 0 970.6 1.7 59
2020-03-09 21:00:00 9.5 22 Noroeste 54 Noroeste 0 969.7 0.9 59
2020-03-09 20:00:00 10.2 24 Noroeste 53 Oeste 0 969.2 1.1 55
2020-03-09 19:00:00 11.2 27 Noroeste 57 Noroeste 0 968.9 1 49
2020-03-09 18:00:00 12.7 34 Noroeste 59 Noroeste 0 968.8 0.6 44
2020-03-09 17:00:00 13.2 39 Noroeste 67 Noroeste 0 968.1 -0.8 41
2020-03-09 16:00:00 13.7 42 Noroeste 66 Noroeste 0 967.9 -1.9 37
2020-03-09 15:00:00 14 40 Noroeste 65 Noroeste 0 968.2 -2.3 34
2020-03-09 14:00:00 13.2 33 Noroeste 58 Noroeste 0 968.9 -1.9 41
2020-03-09 13:00:00 12.7 38 Noroeste 60 Noroeste 0 969.8 -1.1 42
2020-03-09 12:00:00 12.3 28 Oeste 50 Oeste 0 970.5 0 44
2020-03-09 11:00:00 11.2 27 Noroeste 48 Noroeste 0 970.8 0.5 48
2020-03-09 10:00:00 10.5 29 Noroeste 53 Noroeste 0 970.9 1.3 49
2020-03-09 09:00:00 9.4 17 Noroeste 35 Noroeste 0 970.5 1.3 58
2020-03-09 08:00:00 9 20 Noroeste 31 Noroeste 0 970.3 1.5 61
2020-03-09 07:00:00 9.1 13 Noroeste 33 Oeste 0 969.6 1 66
2020-03-09 06:00:00 9.4 17 Noroeste 34 Noroeste 0 969.2 0.4 66
2020-03-09 05:00:00 9.7 12 Oeste 27 Noroeste 0 968.8 0.1 65
2020-03-09 04:00:00 9.7 16 Oeste 41 Noroeste 0 968.6 0.7 68
2020-03-09 03:00:00 10.1 24 Noroeste 41 Noroeste 0 968.8 0.9 67
2020-03-09 02:00:00 10.7 21 Noroeste 38 Noroeste 0 968.7 0.8 64
2020-03-09 01:00:00 10.7 12 Sudoeste 18 Sudoeste 0 967.9 0.4 54
2020-03-09 00:00:00 10 10 Sudoeste 13 Sudoeste 0 967.9 0.6 58
2020-03-08 23:00:00 10.4 8 Sudoeste 11 Sudoeste 0 967.9 0.8 55
2020-03-08 22:00:00 9.2 7 Sudoeste 13 Sudoeste 0 967.5 0.7 59
2020-03-08 21:00:00 10.3 6 Sudoeste 11 Oeste 0 967.3 0.6 56
2020-03-08 20:00:00 11.1 7 Oeste 9 Oeste 0 967.1 0.6 56
2020-03-08 19:00:00 14.8 5 Norte 8 Norte 0 966.8 0.2 40
2020-03-08 18:00:00 16.8 7 Norte 20 Noroeste 0 966.7 -0.5 29
2020-03-08 17:00:00 18 12 Noroeste 21 Noroeste 0 966.5 -1.4 24
2020-03-08 16:00:00 18.3 14 Noroeste 23 Noroeste 0 966.6 -2.5 24
2020-03-08 15:00:00 18.6 11 Noroeste 24 Noroeste 0 967.2 -2.6 25
2020-03-08 14:00:00 17.3 6 Sudoeste 22 Noroeste 0 967.9 -2.2 29
2020-03-08 13:00:00 16.2 14 Oeste 30 Oeste 0 969.1 -0.9 31
2020-03-08 12:00:00 15.4 16 Noroeste 30 Oeste 0 969.8 -0.1 31
2020-03-08 11:00:00 14.3 17 Oeste 29 Sudoeste 0 970.1 1 37
2020-03-08 10:00:00 12.8 18 Sudoeste 32 Sudoeste 0 970 0.8 43
2020-03-08 09:00:00 10 18 Sudoeste 27 Sudoeste 0 969.9 0.5 55
2020-03-08 08:00:00 7.8 19 Sudoeste 26 Sudoeste 0 969.1 0.3 62
2020-03-08 07:00:00 7.2 12 Sudoeste 23 Sudoeste 0 969.2 0.3 62
2020-03-08 06:00:00 6.8 16 Sudoeste 25 Sudoeste 0 969.4 -0.2 65
2020-03-08 05:00:00 6.5 14 Sudoeste 18 Sudoeste 0 968.8 -1.5 69
2020-03-08 04:00:00 6.8 10 Sudoeste 19 Sudoeste 0 968.9 -1.8 68
2020-03-08 03:00:00 5.8 4 Sudoeste 11 Sur 0 969.6 -1.1 72
2020-03-08 02:00:00 7.3 9 Sudoeste 13 Sudoeste 0 970.3 -0.5 66
2020-03-08 01:00:00 7.9 7 Sudoeste 16 Sudoeste 0 970.7 -0.1 65
2020-03-08 00:00:00 9.2 13 Oeste 26 Sudoeste 0 970.7 0.3 61
2020-03-07 23:00:00 9.1 9 Oeste 24 Oeste 0 970.8 0.8 62
2020-03-07 22:00:00 9.9 13 Oeste 27 Oeste 0 970.8 2 59
2020-03-07 21:00:00 10.2 15 Oeste 33 Oeste 0 970.4 2.6 60
2020-03-07 20:00:00 10.8 18 Oeste 39 Noroeste 0 970 2.7 60
2020-03-07 19:00:00 11.8 23 Oeste 49 Noroeste 0 968.8 1.6 55
2020-03-07 18:00:00 13.4 28 Noroeste 57 Noroeste 0 967.8 0.6 48
2020-03-07 17:00:00 13.8 35 Noroeste 54 Noroeste 0 967.3 -0.3 44
2020-03-07 16:00:00 14.1 36 Noroeste 66 Noroeste 0 967.2 -0.6 44
2020-03-07 15:00:00 13.8 38 Noroeste 66 Noroeste 0 967.2 -0.7 45
2020-03-07 14:00:00 13.1 37 Noroeste 62 Noroeste 0 967.6 0 45
2020-03-07 13:00:00 12.9 38 Noroeste 70 Noroeste 0 967.8 0.3 47
2020-03-07 12:00:00 11.9 44 Noroeste 64 Noroeste 0 967.9 0.6 51
2020-03-07 11:00:00 10.9 35 Noroeste 61 Noroeste 0 967.6 0.8 52
2020-03-07 10:00:00 9.4 40 Oeste 63 Noroeste 0 967.5 0.9 54
2020-03-07 09:00:00 8.4 32 Oeste 59 Oeste 0 967.3 0.8 54
2020-03-07 08:00:00 6.7 28 Oeste 50 Oeste 0 966.8 0.2 57
2020-03-07 07:00:00 6.2 29 Oeste 49 Oeste 0 966.6 0.2 60
2020-03-07 06:00:00 5.9 27 Noroeste 49 Noroeste 0 966.5 0.2 62
2020-03-07 05:00:00 5.7 31 Noroeste 51 Noroeste 0 966.6 0.2 64
2020-03-07 04:00:00 5.6 34 Noroeste 56 Noroeste 0 966.4 0 62
2020-03-07 03:00:00 5.3 32 Oeste 58 Noroeste 0 966.3 0.2 61
2020-03-07 02:00:00 5.2 31 Noroeste 51 Noroeste 0 966.4 0.4 61
2020-03-07 01:00:00 5.4 29 Noroeste 57 Oeste 0 966.4 0.3 59
2020-03-07 00:00:00 5.3 33 Noroeste 62 Noroeste 0 966.1 1 61
2020-03-06 23:00:00 5.5 33 Noroeste 58 Noroeste 0 966 1.6 61
2020-03-06 22:00:00 6.1 35 Noroeste 59 Noroeste 0 966.1 2.6 58
2020-03-06 21:00:00 6.4 24 Noroeste 38 Noroeste 0 965.1 3.2 57
2020-03-06 20:00:00 6.5 22 Noroeste 51 Noroeste 0 964.4 3.7 59
2020-03-06 19:00:00 6.7 26 Noroeste 67 Noroeste 0 963.5 3.5 56
2020-03-06 18:00:00 8.5 43 Noroeste 66 Noroeste 0 961.9 2.5 45
2020-03-06 17:00:00 9.4 45 Noroeste 70 Noroeste 0 960.7 0.7 44
2020-03-06 16:00:00 9.5 44 Noroeste 73 Noroeste 0 960 -0.4 44
2020-03-06 15:00:00 9.7 43 Noroeste 73 Noroeste 0 959.4 -0.5 43
2020-03-06 14:00:00 8.9 37 Noroeste 67 Noroeste 0.2 960 -0.2 62
2020-03-06 13:00:00 8.4 34 Noroeste 64 Noroeste 0 960.4 2 61
2020-03-06 12:00:00 7.8 27 Noroeste 44 Oeste 0.6 959.9 2.3 74
2020-03-06 11:00:00 4.6 15 Noroeste 56 Noroeste 2 960.2 2.9 94
2020-03-06 10:00:00 7.6 30 Oeste 60 Oeste 0 958.4 1 67
2020-03-06 09:00:00 8.4 20 Oeste 35 Oeste 0 957.6 0.5 55
2020-03-06 08:00:00 7.8 6 Oeste 23 Sudoeste 0 957.3 0 61
2020-03-06 07:00:00 7.4 7 Sudoeste 24 Noroeste 0 957.4 -0.1 58
2020-03-06 06:00:00 6.6 8 Oeste 28 Oeste 0 957.1 -0.9 61
2020-03-06 05:00:00 8 20 Oeste 44 Oeste 0 957.3 -1.1 55
2020-03-06 04:00:00 6.7 4 Sudoeste 10 Oeste 0 957.5 -1.3 68
2020-03-06 03:00:00 7.8 3 Oeste 17 Oeste 0 958 -0.9 63
2020-03-06 02:00:00 7.5 10 Oeste 22 Oeste 0 958.4 -0.5 63
2020-03-06 01:00:00 8.1 13 Oeste 28 Noroeste 0 958.8 0.7 61
2020-03-06 00:00:00 8.6 13 Oeste 29 Oeste 0 958.9 1.3 64
2020-03-05 23:00:00 9.2 15 Noroeste 30 Noroeste 0 958.9 2.4 66
2020-03-05 22:00:00 9.2 22 Noroeste 46 Noroeste 0 958.1 2.8 72
2020-03-05 21:00:00 10 25 Noroeste 46 Noroeste 0 957.6 3.4 71
2020-03-05 20:00:00 11.8 26 Noroeste 50 Noroeste 0 956.5 2.9 58
2020-03-05 19:00:00 13.2 24 Noroeste 55 Oeste 0 955.3 1.8 48
2020-03-05 18:00:00 16 30 Oeste 59 Oeste 0 954.2 0.5 30
2020-03-05 17:00:00 16.8 36 Oeste 61 Oeste 0 953.6 0.9 28
2020-03-05 16:00:00 17 41 Oeste 64 Oeste 0 953.5 0.1 27
2020-03-05 15:00:00 15.8 35 Oeste 67 Noroeste 0 953.7 -0.3 34
2020-03-05 14:00:00 19.1 35 Oeste 54 Oeste 0 952.7 -1.9 37
2020-03-05 13:00:00 17.9 22 Noroeste 37 Noroeste 0 953.4 -2.4 43
2020-03-05 12:00:00 18.7 16 Oeste 33 Sudoeste 0 954 -2.1 40
2020-03-05 11:00:00 15.9 17 Sudoeste 25 Sudoeste 0 954.6 -1.7 48
2020-03-05 10:00:00 14.5 0 Calma 17 Sudoeste 0 955.8 -0.5 53
2020-03-05 09:00:00 14.2 10 Sudoeste 22 Sudoeste 0 956.1 -0.7 50
2020-03-05 08:00:00 13.6 11 Sudoeste 26 Sudoeste 0 956.3 -1.6 52
2020-03-05 07:00:00 13 14 Sudoeste 28 Sudoeste 0 956.3 -2.1 53
2020-03-05 06:00:00 12.1 13 Sudoeste 21 Sudoeste 0 956.8 -2.8 57
2020-03-05 05:00:00 11.5 8 Oeste 23 Sudoeste 0 957.9 -2.9 58
2020-03-05 04:00:00 11.5 9 Sudoeste 18 Sur 0 958.4 -3.1 58
2020-03-05 03:00:00 12.1 8 Sudoeste 19 Sudoeste 0 959.6 -2.5 56
2020-03-05 02:00:00 10.9 7 Sudoeste 13 Sudoeste 0 960.8 -2.2 60
2020-03-05 01:00:00 13.1 11 Sudoeste 17 Sudoeste 0 961.5 -1.5 52
2020-03-05 00:00:00 13 10 Sudoeste 21 Sudoeste 0 962.1 -0.8 54
2020-03-04 23:00:00 13.9 12 Sudoeste 17 Sudoeste 0 963 0.4 51
2020-03-04 22:00:00 13.4 9 Sudoeste 17 Oeste 0 963 1 54
2020-03-04 21:00:00 13.4 9 Oeste 14 Sudoeste 0 962.9 1.2 54
2020-03-04 20:00:00 14.6 7 Oeste 15 Oeste 0 962.6 0.6 49
2020-03-04 19:00:00 16.7 12 Oeste 27 Noroeste 0 962 0.2 42
2020-03-04 18:00:00 19 19 Noroeste 34 Oeste 0 961.7 -0.5 34
2020-03-04 17:00:00 20 21 Oeste 39 Oeste 0 962 -0.8 33
2020-03-04 16:00:00 21 21 Oeste 37 Noroeste 0 961.8 -1.7 33
2020-03-04 15:00:00 19.3 17 Noroeste 30 Norte 0 962.2 -1.5 44
2020-03-04 14:00:00 18.4 17 Noroeste 30 Noroeste 0 962.8 -1.1 49
2020-03-04 13:00:00 18.6 22 Noroeste 43 Noroeste 0 963.5 -0.3 48
2020-03-04 12:00:00 19.4 23 Oeste 43 Noroeste 0 963.7 -0.1 45
2020-03-04 11:00:00 17.4 20 Noroeste 33 Noroeste 0 963.9 0.5 52
2020-03-04 10:00:00 15.5 9 Oeste 15 Oeste 0 963.8 0.3 66
2020-03-04 09:00:00 11.3 9 Sudoeste 14 Sudoeste 0 963.8 0.5 74
2020-03-04 08:00:00 8.6 6 Sur 13 Sudoeste 0 963.4 0 78
2020-03-04 07:00:00 7.9 2 Sudoeste 10 Sudoeste 0 963.5 0.1 80
2020-03-04 06:00:00 7.4 2 Oeste 15 Sudoeste 0 963.3 -0.6 81
2020-03-04 05:00:00 8.1 -- -- -- -- 0 963.4 -0.7 78
2020-03-04 04:00:00 8 9 Sudoeste 13 Sudoeste 0 963.4 -0.3 79
2020-03-04 03:00:00 8.4 10 Sudoeste 13 Sudoeste 0 963.9 0.4 76
2020-03-04 02:00:00 8.2 5 Sudoeste 14 Oeste 0 964.1 1.5 74
2020-03-04 01:00:00 9.8 8 Oeste 13 Sudoeste 0 963.7 2 66
2020-03-04 00:00:00 10.4 7 Oeste 35 Oeste 0 963.5 3.1 63
2020-03-03 23:00:00 11.3 20 Noroeste 36 Noroeste 0 962.6 3.8 58
2020-03-03 22:00:00 11.9 20 Noroeste 38 Noroeste 0 961.7 4.6 54
2020-03-03 21:00:00 12.6 22 Noroeste 54 Noroeste 0 960.4 5.9 49
2020-03-03 20:00:00 13.7 33 Noroeste 62 Noroeste 0 958.8 5.4 44
2020-03-03 19:00:00 14.8 31 Noroeste 66 Noroeste 0 957.1 4.1 47
2020-03-03 18:00:00 17.7 37 Oeste 73 Oeste 0 954.5 1.3 41
2020-03-03 17:00:00 19 42 Oeste 79 Oeste 0 953.4 -1.4 31
2020-03-03 16:00:00 18.5 41 Oeste 80 Oeste 0.2 953 -3.2 36
2020-03-03 15:00:00 17.8 44 Oeste 70 Oeste 0 953.2 -4 38
2020-03-03 14:00:00 16.5 37 Oeste 64 Oeste 0 954.8 -3.5 42
2020-03-03 13:00:00 15.2 35 Oeste 59 Oeste 0 956.2 -2.9 43
2020-03-03 12:00:00 12.8 24 Oeste 40 Oeste 0 957.2 -3.3 50
2020-03-03 11:00:00 8.6 9 Sur 15 Sudeste 0 958.3 -1.7 66
2020-03-03 10:00:00 7.1 4 Sur 31 Sudoeste 0 959.1 -1.1 75
2020-03-03 09:00:00 7.3 23 Oeste 48 Oeste 0 960.5 -0.2 61
2020-03-03 08:00:00 7.7 19 Sudoeste 36 Sudoeste 0 960 -0.6 49
2020-03-03 07:00:00 5.7 9 Oeste 25 Oeste 0 960.2 -0.9 57
2020-03-03 06:00:00 5.9 9 Noroeste 28 Oeste 0 960.7 -1 55
2020-03-03 05:00:00 5.4 9 Oeste 19 Oeste 0 960.6 -1.3 56
2020-03-03 04:00:00 4.5 8 Oeste 19 Oeste 0 961.1 -0.6 61
2020-03-03 03:00:00 5.6 12 Sudoeste 24 Oeste 0 961.7 0.4 58
2020-03-03 02:00:00 6.2 14 Oeste 26 Noroeste 0 961.9 1.2 55
2020-03-03 01:00:00 4.1 7 Oeste 19 Oeste 0 961.7 1.7 66
2020-03-03 00:00:00 5.3 11 Oeste 22 Oeste 0 961.3 2.5 56
2020-03-02 23:00:00 5.8 11 Oeste 31 Oeste 0 960.7 2.7 53
2020-03-02 22:00:00 6.3 15 Oeste 35 Oeste 0 960 3.8 53
2020-03-02 21:00:00 7.1 25 Noroeste 37 Noroeste 0 958.8 3.4 53
2020-03-02 20:00:00 6.8 9 Oeste 24 Oeste 0 958 4.3 60
2020-03-02 19:00:00 8 18 Oeste 35 Noroeste 0 956.2 3.7 57
2020-03-02 18:00:00 6.9 19 Oeste 63 Noroeste 0.2 955.4 2.9 74
2020-03-02 17:00:00 9.7 25 Noroeste 51 Noroeste 0 953.7 1.2 50
2020-03-02 16:00:00 9.8 29 Noroeste 61 Noroeste 0 952.5 1.7 49
2020-03-02 15:00:00 8.9 33 Noroeste 62 Noroeste 0 952.5 2.1 61
2020-03-02 14:00:00 7.5 40 Oeste 59 Oeste 0 952.5 2.6 65
2020-03-02 13:00:00 9.9 32 Noroeste 64 Noroeste 0 950.8 3.4 52
2020-03-02 12:00:00 9.9 33 Noroeste 62 Noroeste 0 950.4 4 49
2020-03-02 11:00:00 9.6 35 Noroeste 65 Noroeste 0 949.9 4.8 64
2020-03-02 10:00:00 12.5 36 Oeste 65 Oeste 0.2 947.4 6.2 49
2020-03-02 09:00:00 11.6 28 Oeste 76 Noroeste 1 946.4 5.4 63
2020-03-02 08:00:00 11.4 44 Oeste 91 Noroeste 0.2 945.1 2.3 65
2020-03-02 07:00:00 16.3 46 Sudoeste 81 Sudoeste 0 941.2 -3.5 40
2020-03-02 06:00:00 16.6 53 Sudoeste 76 Sudoeste 0 941 -5.2 39
2020-03-02 05:00:00 16.3 10 Nordeste 27 Noroeste 0 942.8 -5.3 42
2020-03-02 04:00:00 17 11 Oeste 35 Oeste 0 944.7 -5.4 39
2020-03-02 03:00:00 16.2 9 Sur 30 Sur 0 946.2 -5.7 44
2020-03-02 02:00:00 15.7 13 Sur 27 Sur 0 948.1 -5.2 45
2020-03-02 01:00:00 15.4 15 Sur 27 Sur 0 950.1 -4.5 46
2020-03-02 00:00:00 14.3 6 Sur 18 Sur 0 951.9 -2.7 46
2020-03-01 23:00:00 14.7 9 Sudeste 23 Sudoeste 0 953.3 -2.4 43
2020-03-01 22:00:00 15.5 15 Sudoeste 32 Sudoeste 0 954.6 -1.1 41
2020-03-01 21:00:00 15.6 21 Sudoeste 41 Sudoeste 0 954.6 -0.8 38
2020-03-01 20:00:00 15 6 Sudoeste 29 Oeste 0 955.7 0.3 40
2020-03-01 19:00:00 15.8 15 Oeste 44 Sudoeste 0 955.7 -0.4 38
2020-03-01 18:00:00 17.2 23 Oeste 42 Oeste 0 955.4 -1.1 34
2020-03-01 17:00:00 17.2 16 Oeste 46 Oeste 0 955.4 -1.7 36
2020-03-01 16:00:00 16.7 22 Oeste 42 Oeste 0 956.1 -1.4 36
2020-03-01 15:00:00 16.7 24 Oeste 45 Oeste 0 956.5 -0.9 32
2020-03-01 14:00:00 16.7 23 Oeste 52 Oeste 0 957.1 -0.6 36
2020-03-01 13:00:00 17.1 26 Oeste 52 Oeste 0 957.5 0.1 34
2020-03-01 12:00:00 17 32 Oeste 52 Oeste 0 957.4 -0.4 33
2020-03-01 11:00:00 15.5 37 Oeste 52 Oeste 0 957.7 0.1 37
2020-03-01 10:00:00 14.3 23 Oeste 50 Oeste 0 957.4 -0.2 41
2020-03-01 09:00:00 12.5 23 Oeste 34 Oeste 0 957.8 1.1 49
2020-03-01 08:00:00 10.4 11 Oeste 27 Oeste 0 957.6 0.8 54
2020-03-01 07:00:00 10.2 9 Oeste 28 Sudoeste 0 957.6 0.3 55
2020-03-01 06:00:00 11.7 15 Oeste 28 Oeste 0 956.7 -1.1 54
2020-03-01 05:00:00 11 6 Sudoeste 11 Sudoeste 0 956.8 -1.2 53
2020-03-01 04:00:00 10.7 7 Oeste 10 Oeste 0 957.3 -0.7 56
2020-03-01 03:00:00 10.6 5 Oeste 9 Sudoeste 0 957.8 -0.2 55
2020-03-01 02:00:00 10.7 8 Sudoeste 11 Sudoeste 0 958 0.2 57
2020-03-01 01:00:00 12 3 Noroeste 19 Oeste 0 958 0.7 55
2020-03-01 00:00:00 14.6 16 Oeste 32 Oeste 0 958 1.4 46
2020-02-29 23:00:00 14.7 8 Oeste 17 Oeste 0 957.8 1.3 49
2020-02-29 22:00:00 15.6 15 Oeste 35 Oeste 0 957.3 1.3 44
2020-02-29 21:00:00 15.9 13 Oeste 26 Oeste 0 956.6 1.3 43
2020-02-29 20:00:00 16.1 7 Oeste 28 Sudoeste 0 956.5 1.1 42
2020-02-29 19:00:00 16.9 12 Sudoeste 31 Oeste 0 956 0.6 39
2020-02-29 18:00:00 17.1 7 Norte 20 Oeste 0 955.3 -0.6 41
2020-02-29 17:00:00 17.4 4 Nordeste 21 Nordeste 0 955.4 -0.7 40
2020-02-29 16:00:00 19.2 15 Noroeste 26 Norte 0 955.4 -1 32
2020-02-29 15:00:00 17.6 9 Norte 17 Norte 0 955.9 -1.2 35
2020-02-29 14:00:00 18.1 10 Norte 25 Norte 0 956.1 -1.2 36
2020-02-29 13:00:00 19.4 11 Oeste 29 Oeste 0 956.4 -0.9 26
2020-02-29 12:00:00 19.7 14 Oeste 31 Oeste 0 957.1 -0.3 24
2020-02-29 11:00:00 18.2 19 Oeste 31 Oeste 0 957.3 -0.4 29
2020-02-29 10:00:00 15.4 12 Sur 23 Sur 0 957.3 -0.5 37
2020-02-29 09:00:00 11.6 12 Sudoeste 18 Sur 0 957.4 -0.7 50
2020-02-29 08:00:00 7.7 6 Sur 15 Sudoeste 0 957.7 -0.3 62
2020-02-29 07:00:00 8.5 4 Norte 11 Nordeste 0 957.8 -0.5 58
2020-02-29 06:00:00 10.7 4 Noroeste 15 Sudoeste 0 958.1 -1.4 46
2020-02-29 05:00:00 7.8 3 Sudoeste 13 Oeste 0 958 -2.5 61
2020-02-29 04:00:00 9.1 5 Sudoeste 9 Oeste 0 958.3 -2.8 57
2020-02-29 03:00:00 11.3 0 Calma 10 Sudeste 0 959.5 -2.3 49
2020-02-29 02:00:00 13 9 Sudeste 20 Sur 0 960.5 -1.6 42
2020-02-29 01:00:00 13.4 8 Sur 31 Sur 0 961.1 -0.9 42
2020-02-29 00:00:00 13.9 15 Sur 37 Sur 0 961.8 -0.5 41